sensor_id;sensor_type;location;lat;lon;timestamp;P1;durP1;ratioP1;P2;durP2;ratioP2
59972;SDS011;55298;-36.624;-64.282;2022-10-15T00:01:10;7.50;;;4.60;;
59972;SDS011;55298;-36.624;-64.282;2022-10-15T00:03:40;17.80;;;5.35;;
59972;SDS011;55298;-36.624;-64.282;2022-10-15T00:06:12;13.20;;;5.45;;
59972;SDS011;55298;-36.624;-64.282;2022-10-15T00:08:45;16.65;;;7.28;;
59972;SDS011;55298;-36.624;-64.282;2022-10-15T00:11:17;17.95;;;7.57;;
59972;SDS011;55298;-36.624;-64.282;2022-10-15T00:13:45;12.48;;;6.72;;
59972;SDS011;55298;-36.624;-64.282;2022-10-15T00:16:15;23.52;;;11.00;;
59972;SDS011;55298;-36.624;-64.282;2022-10-15T00:18:45;25.23;;;12.70;;
59972;SDS011;55298;-36.624;-64.282;2022-10-15T00:21:13;17.67;;;9.70;;
59972;SDS011;55298;-36.624;-64.282;2022-10-15T00:23:45;19.40;;;9.30;;
59972;SDS011;55298;-36.624;-64.282;2022-10-15T00:26:14;19.55;;;7.65;;
59972;SDS011;55298;-36.624;-64.282;2022-10-15T00:28:44;14.55;;;5.40;;
59972;SDS011;55298;-36.624;-64.282;2022-10-15T00:31:15;15.98;;;5.25;;
59972;SDS011;55298;-36.624;-64.282;2022-10-15T00:33:45;20.95;;;5.43;;
59972;SDS011;55298;-36.624;-64.282;2022-10-15T00:36:19;20.98;;;11.43;;
59972;SDS011;55298;-36.624;-64.282;2022-10-15T00:38:47;14.30;;;4.55;;
59972;SDS011;55298;-36.624;-64.282;2022-10-15T00:41:18;15.70;;;4.55;;
59972;SDS011;55298;-36.624;-64.282;2022-10-15T00:43:49;12.68;;;5.35;;
59972;SDS011;55298;-36.624;-64.282;2022-10-15T00:46:22;12.02;;;6.10;;
59972;SDS011;55298;-36.624;-64.282;2022-10-15T00:48:57;13.35;;;6.13;;
59972;SDS011;55298;-36.624;-64.282;2022-10-15T00:51:30;11.65;;;5.55;;
59972;SDS011;55298;-36.624;-64.282;2022-10-15T00:54:03;11.40;;;6.43;;
59972;SDS011;55298;-36.624;-64.282;2022-10-15T00:56:31;9.93;;;5.20;;
59972;SDS011;55298;-36.624;-64.282;2022-10-15T00:58:59;10.98;;;4.93;;
59972;SDS011;55298;-36.624;-64.282;2022-10-15T01:01:27;5.45;;;3.78;;
59972;SDS011;55298;-36.624;-64.282;2022-10-15T01:03:54;9.93;;;4.18;;
59972;SDS011;55298;-36.624;-64.282;2022-10-15T01:06:22;8.13;;;3.92;;
59972;SDS011;55298;-36.624;-64.282;2022-10-15T01:08:51;14.38;;;4.38;;
59972;SDS011;55298;-36.624;-64.282;2022-10-15T01:11:26;6.75;;;3.30;;
59972;SDS011;55298;-36.624;-64.282;2022-10-15T01:14:09;7.30;;;4.20;;
59972;SDS011;55298;-36.624;-64.282;2022-10-15T01:16:50;7.38;;;4.00;;
59972;SDS011;55298;-36.624;-64.282;2022-10-15T01:19:31;8.40;;;3.63;;
59972;SDS011;55298;-36.624;-64.282;2022-10-15T01:22:18;7.70;;;3.47;;
59972;SDS011;55298;-36.624;-64.282;2022-10-15T01:30:58;10.30;;;3.80;;
59972;SDS011;55298;-36.624;-64.282;2022-10-15T01:33:35;4.38;;;3.15;;
59972;SDS011;55298;-36.624;-64.282;2022-10-15T01:36:18;6.82;;;3.35;;
59972;SDS011;55298;-36.624;-64.282;2022-10-15T01:38:54;6.28;;;3.55;;
59972;SDS011;55298;-36.624;-64.282;2022-10-15T01:41:32;8.32;;;3.63;;
59972;SDS011;55298;-36.624;-64.282;2022-10-15T01:44:11;8.65;;;4.22;;
59972;SDS011;55298;-36.624;-64.282;2022-10-15T01:46:45;7.80;;;3.70;;
59972;SDS011;55298;-36.624;-64.282;2022-10-15T01:49:25;8.95;;;3.72;;
59972;SDS011;55298;-36.624;-64.282;2022-10-15T01:51:57;5.57;;;3.30;;
59972;SDS011;55298;-36.624;-64.282;2022-10-15T01:54:31;5.40;;;3.55;;
59972;SDS011;55298;-36.624;-64.282;2022-10-15T01:57:00;5.85;;;3.05;;
59972;SDS011;55298;-36.624;-64.282;2022-10-15T01:59:30;5.18;;;3.20;;
59972;SDS011;55298;-36.624;-64.282;2022-10-15T02:02:00;6.93;;;2.90;;
59972;SDS011;55298;-36.624;-64.282;2022-10-15T02:04:27;8.57;;;4.38;;
59972;SDS011;55298;-36.624;-64.282;2022-10-15T02:07:05;7.65;;;3.45;;
59972;SDS011;55298;-36.624;-64.282;2022-10-15T02:09:52;7.57;;;3.60;;
59972;SDS011;55298;-36.624;-64.282;2022-10-15T02:15:16;8.00;;;4.00;;
59972;SDS011;55298;-36.624;-64.282;2022-10-15T02:17:59;6.57;;;3.83;;
59972;SDS011;55298;-36.624;-64.282;2022-10-15T02:20:50;7.18;;;3.38;;
59972;SDS011;55298;-36.624;-64.282;2022-10-15T02:23:35;9.23;;;3.70;;
59972;SDS011;55298;-36.624;-64.282;2022-10-15T02:26:19;5.78;;;3.50;;
59972;SDS011;55298;-36.624;-64.282;2022-10-15T02:28:51;8.35;;;3.53;;
59972;SDS011;55298;-36.624;-64.282;2022-10-15T02:31:22;4.80;;;3.30;;
59972;SDS011;55298;-36.624;-64.282;2022-10-15T02:33:51;6.55;;;3.85;;
59972;SDS011;55298;-36.624;-64.282;2022-10-15T02:36:25;7.93;;;3.30;;
59972;SDS011;55298;-36.624;-64.282;2022-10-15T02:38:53;5.47;;;3.30;;
59972;SDS011;55298;-36.624;-64.282;2022-10-15T02:41:26;5.67;;;3.13;;
59972;SDS011;55298;-36.624;-64.282;2022-10-15T02:43:54;8.63;;;3.25;;
59972;SDS011;55298;-36.624;-64.282;2022-10-15T02:46:22;7.15;;;3.65;;
59972;SDS011;55298;-36.624;-64.282;2022-10-15T02:48:50;9.13;;;3.35;;
59972;SDS011;55298;-36.624;-64.282;2022-10-15T02:51:18;6.53;;;3.30;;
59972;SDS011;55298;-36.624;-64.282;2022-10-15T02:53:46;9.48;;;3.55;;
59972;SDS011;55298;-36.624;-64.282;2022-10-15T02:56:13;5.82;;;3.10;;
59972;SDS011;55298;-36.624;-64.282;2022-10-15T02:58:41;7.70;;;3.45;;
59972;SDS011;55298;-36.624;-64.282;2022-10-15T03:01:09;9.13;;;3.63;;
59972;SDS011;55298;-36.624;-64.282;2022-10-15T03:03:36;5.97;;;3.45;;
59972;SDS011;55298;-36.624;-64.282;2022-10-15T03:06:04;6.50;;;3.42;;
59972;SDS011;55298;-36.624;-64.282;2022-10-15T03:08:31;6.80;;;3.33;;
59972;SDS011;55298;-36.624;-64.282;2022-10-15T03:10:59;11.63;;;4.18;;
59972;SDS011;55298;-36.624;-64.282;2022-10-15T03:13:29;8.52;;;3.47;;
59972;SDS011;55298;-36.624;-64.282;2022-10-15T03:16:03;7.95;;;3.20;;
59972;SDS011;55298;-36.624;-64.282;2022-10-15T03:18:31;6.88;;;3.33;;
59972;SDS011;55298;-36.624;-64.282;2022-10-15T03:20:59;9.93;;;3.42;;
59972;SDS011;55298;-36.624;-64.282;2022-10-15T03:23:27;7.63;;;3.45;;
59972;SDS011;55298;-36.624;-64.282;2022-10-15T03:25:55;9.75;;;3.63;;
59972;SDS011;55298;-36.624;-64.282;2022-10-15T03:28:23;9.95;;;4.45;;
59972;SDS011;55298;-36.624;-64.282;2022-10-15T03:30:51;7.05;;;3.00;;
59972;SDS011;55298;-36.624;-64.282;2022-10-15T03:33:18;9.20;;;3.03;;
59972;SDS011;55298;-36.624;-64.282;2022-10-15T03:35:46;6.32;;;2.80;;
59972;SDS011;55298;-36.624;-64.282;2022-10-15T03:38:14;7.18;;;3.05;;
59972;SDS011;55298;-36.624;-64.282;2022-10-15T03:40:42;16.00;;;5.25;;
59972;SDS011;55298;-36.624;-64.282;2022-10-15T03:43:10;7.30;;;3.00;;
59972;SDS011;55298;-36.624;-64.282;2022-10-15T03:45:38;7.80;;;2.90;;
59972;SDS011;55298;-36.624;-64.282;2022-10-15T03:48:06;4.32;;;3.00;;
59972;SDS011;55298;-36.624;-64.282;2022-10-15T03:50:33;8.05;;;3.03;;
59972;SDS011;55298;-36.624;-64.282;2022-10-15T03:53:02;5.45;;;3.10;;
59972;SDS011;55298;-36.624;-64.282;2022-10-15T03:55:33;4.72;;;3.47;;
59972;SDS011;55298;-36.624;-64.282;2022-10-15T03:58:02;7.13;;;3.40;;
59972;SDS011;55298;-36.624;-64.282;2022-10-15T04:00:30;4.22;;;3.13;;
59972;SDS011;55298;-36.624;-64.282;2022-10-15T04:02:58;5.32;;;3.00;;
59972;SDS011;55298;-36.624;-64.282;2022-10-15T04:05:26;5.90;;;2.90;;
59972;SDS011;55298;-36.624;-64.282;2022-10-15T04:07:55;5.15;;;2.92;;
59972;SDS011;55298;-36.624;-64.282;2022-10-15T04:10:23;3.45;;;2.95;;
59972;SDS011;55298;-36.624;-64.282;2022-10-15T04:12:50;10.02;;;3.22;;
59972;SDS011;55298;-36.624;-64.282;2022-10-15T04:15:18;5.05;;;3.13;;
59972;SDS011;55298;-36.624;-64.282;2022-10-15T04:17:46;7.80;;;3.15;;
59972;SDS011;55298;-36.624;-64.282;2022-10-15T04:20:14;4.90;;;3.78;;
59972;SDS011;55298;-36.624;-64.282;2022-10-15T04:22:41;6.00;;;3.20;;
59972;SDS011;55298;-36.624;-64.282;2022-10-15T04:25:08;7.43;;;3.05;;
59972;SDS011;55298;-36.624;-64.282;2022-10-15T04:27:36;5.57;;;2.70;;
59972;SDS011;55298;-36.624;-64.282;2022-10-15T04:30:04;5.95;;;3.75;;
59972;SDS011;55298;-36.624;-64.282;2022-10-15T04:32:33;4.40;;;2.63;;
59972;SDS011;55298;-36.624;-64.282;2022-10-15T04:35:00;5.53;;;2.97;;
59972;SDS011;55298;-36.624;-64.282;2022-10-15T04:37:28;8.27;;;3.05;;
59972;SDS011;55298;-36.624;-64.282;2022-10-15T04:39:58;4.03;;;3.20;;
59972;SDS011;55298;-36.624;-64.282;2022-10-15T04:42:28;5.25;;;3.08;;
59972;SDS011;55298;-36.624;-64.282;2022-10-15T04:44:56;5.80;;;2.90;;
59972;SDS011;55298;-36.624;-64.282;2022-10-15T04:47:24;5.55;;;2.90;;
59972;SDS011;55298;-36.624;-64.282;2022-10-15T04:49:51;4.32;;;2.90;;
59972;SDS011;55298;-36.624;-64.282;2022-10-15T04:52:19;3.80;;;2.60;;
59972;SDS011;55298;-36.624;-64.282;2022-10-15T04:54:47;5.40;;;2.90;;
59972;SDS011;55298;-36.624;-64.282;2022-10-15T04:57:15;4.55;;;2.67;;
59972;SDS011;55298;-36.624;-64.282;2022-10-15T04:59:42;5.65;;;2.97;;
59972;SDS011;55298;-36.624;-64.282;2022-10-15T05:02:10;4.22;;;2.90;;
59972;SDS011;55298;-36.624;-64.282;2022-10-15T05:04:38;7.13;;;2.50;;
59972;SDS011;55298;-36.624;-64.282;2022-10-15T05:07:05;2.88;;;2.60;;
59972;SDS011;55298;-36.624;-64.282;2022-10-15T05:09:33;7.38;;;2.80;;
59972;SDS011;55298;-36.624;-64.282;2022-10-15T05:12:01;5.45;;;3.10;;
59972;SDS011;55298;-36.624;-64.282;2022-10-15T05:14:28;4.53;;;3.00;;
59972;SDS011;55298;-36.624;-64.282;2022-10-15T05:17:00;7.07;;;3.13;;
59972;SDS011;55298;-36.624;-64.282;2022-10-15T05:19:27;4.45;;;3.25;;
59972;SDS011;55298;-36.624;-64.282;2022-10-15T05:21:56;4.40;;;3.00;;
59972;SDS011;55298;-36.624;-64.282;2022-10-15T05:24:23;5.55;;;2.70;;
59972;SDS011;55298;-36.624;-64.282;2022-10-15T05:26:51;6.25;;;3.65;;
59972;SDS011;55298;-36.624;-64.282;2022-10-15T05:29:19;6.70;;;3.40;;
59972;SDS011;55298;-36.624;-64.282;2022-10-15T05:31:49;6.70;;;3.17;;
59972;SDS011;55298;-36.624;-64.282;2022-10-15T05:34:17;4.65;;;2.97;;
59972;SDS011;55298;-36.624;-64.282;2022-10-15T05:36:44;3.00;;;2.90;;
59972;SDS011;55298;-36.624;-64.282;2022-10-15T05:39:12;6.22;;;2.70;;
59972;SDS011;55298;-36.624;-64.282;2022-10-15T05:41:45;5.15;;;2.78;;
59972;SDS011;55298;-36.624;-64.282;2022-10-15T05:44:13;3.58;;;2.42;;
59972;SDS011;55298;-36.624;-64.282;2022-10-15T05:46:41;7.97;;;3.20;;
59972;SDS011;55298;-36.624;-64.282;2022-10-15T05:49:09;4.07;;;3.42;;
59972;SDS011;55298;-36.624;-64.282;2022-10-15T05:51:37;4.88;;;2.92;;
59972;SDS011;55298;-36.624;-64.282;2022-10-15T05:54:05;5.97;;;2.97;;
59972;SDS011;55298;-36.624;-64.282;2022-10-15T05:56:32;3.10;;;2.80;;
59972;SDS011;55298;-36.624;-64.282;2022-10-15T05:59:00;3.33;;;2.92;;
59972;SDS011;55298;-36.624;-64.282;2022-10-15T06:01:29;5.72;;;3.15;;
59972;SDS011;55298;-36.624;-64.282;2022-10-15T06:03:57;2.63;;;2.42;;
59972;SDS011;55298;-36.624;-64.282;2022-10-15T06:06:25;4.45;;;2.60;;
59972;SDS011;55298;-36.624;-64.282;2022-10-15T06:08:53;4.05;;;2.80;;
59972;SDS011;55298;-36.624;-64.282;2022-10-15T06:11:22;7.07;;;2.53;;
59972;SDS011;55298;-36.624;-64.282;2022-10-15T06:13:49;5.15;;;3.03;;
59972;SDS011;55298;-36.624;-64.282;2022-10-15T06:16:18;4.75;;;3.17;;
59972;SDS011;55298;-36.624;-64.282;2022-10-15T06:18:45;6.10;;;2.88;;
59972;SDS011;55298;-36.624;-64.282;2022-10-15T06:21:13;7.88;;;3.45;;
59972;SDS011;55298;-36.624;-64.282;2022-10-15T06:23:42;4.28;;;2.92;;
59972;SDS011;55298;-36.624;-64.282;2022-10-15T06:26:10;3.10;;;2.70;;
59972;SDS011;55298;-36.624;-64.282;2022-10-15T06:28:38;3.60;;;3.30;;
59972;SDS011;55298;-36.624;-64.282;2022-10-15T06:31:07;3.38;;;3.08;;
59972;SDS011;55298;-36.624;-64.282;2022-10-15T06:33:36;4.70;;;3.15;;
59972;SDS011;55298;-36.624;-64.282;2022-10-15T06:36:05;3.47;;;2.75;;
59972;SDS011;55298;-36.624;-64.282;2022-10-15T06:38:33;3.40;;;3.10;;
59972;SDS011;55298;-36.624;-64.282;2022-10-15T06:41:03;3.97;;;3.00;;
59972;SDS011;55298;-36.624;-64.282;2022-10-15T06:43:32;5.25;;;3.20;;
59972;SDS011;55298;-36.624;-64.282;2022-10-15T06:46:00;3.38;;;3.10;;
59972;SDS011;55298;-36.624;-64.282;2022-10-15T06:48:28;4.82;;;4.25;;
59972;SDS011;55298;-36.624;-64.282;2022-10-15T06:50:57;6.22;;;3.03;;
59972;SDS011;55298;-36.624;-64.282;2022-10-15T06:53:26;2.95;;;2.75;;
59972;SDS011;55298;-36.624;-64.282;2022-10-15T06:55:55;5.47;;;3.40;;
59972;SDS011;55298;-36.624;-64.282;2022-10-15T06:58:23;4.78;;;3.00;;
59972;SDS011;55298;-36.624;-64.282;2022-10-15T07:00:51;3.28;;;2.88;;
59972;SDS011;55298;-36.624;-64.282;2022-10-15T07:03:19;3.50;;;3.00;;
59972;SDS011;55298;-36.624;-64.282;2022-10-15T07:05:47;5.22;;;3.47;;
59972;SDS011;55298;-36.624;-64.282;2022-10-15T07:08:14;3.58;;;2.80;;
59972;SDS011;55298;-36.624;-64.282;2022-10-15T07:10:42;3.78;;;3.40;;
59972;SDS011;55298;-36.624;-64.282;2022-10-15T07:13:09;5.30;;;3.10;;
59972;SDS011;55298;-36.624;-64.282;2022-10-15T07:15:36;5.65;;;2.58;;
59972;SDS011;55298;-36.624;-64.282;2022-10-15T07:18:04;4.72;;;3.00;;
59972;SDS011;55298;-36.624;-64.282;2022-10-15T07:20:31;4.30;;;2.83;;
59972;SDS011;55298;-36.624;-64.282;2022-10-15T07:23:00;3.58;;;3.17;;
59972;SDS011;55298;-36.624;-64.282;2022-10-15T07:25:29;4.68;;;3.38;;
59972;SDS011;55298;-36.624;-64.282;2022-10-15T07:27:57;5.50;;;3.03;;
59972;SDS011;55298;-36.624;-64.282;2022-10-15T07:30:26;3.17;;;2.95;;
59972;SDS011;55298;-36.624;-64.282;2022-10-15T07:32:55;5.57;;;2.65;;
59972;SDS011;55298;-36.624;-64.282;2022-10-15T07:35:25;4.40;;;3.60;;
59972;SDS011;55298;-36.624;-64.282;2022-10-15T07:37:53;4.00;;;2.88;;
59972;SDS011;55298;-36.624;-64.282;2022-10-15T07:40:22;2.80;;;2.60;;
59972;SDS011;55298;-36.624;-64.282;2022-10-15T07:42:53;5.10;;;3.10;;
59972;SDS011;55298;-36.624;-64.282;2022-10-15T07:45:22;3.83;;;2.70;;
59972;SDS011;55298;-36.624;-64.282;2022-10-15T07:47:53;5.10;;;3.20;;
59972;SDS011;55298;-36.624;-64.282;2022-10-15T07:50:21;3.20;;;2.90;;
59972;SDS011;55298;-36.624;-64.282;2022-10-15T07:52:48;3.40;;;3.10;;
59972;SDS011;55298;-36.624;-64.282;2022-10-15T07:55:16;5.25;;;3.17;;
59972;SDS011;55298;-36.624;-64.282;2022-10-15T07:57:43;3.20;;;2.97;;
59972;SDS011;55298;-36.624;-64.282;2022-10-15T08:00:11;3.45;;;3.25;;
59972;SDS011;55298;-36.624;-64.282;2022-10-15T08:02:39;3.28;;;2.97;;
59972;SDS011;55298;-36.624;-64.282;2022-10-15T08:05:07;4.60;;;3.42;;
59972;SDS011;55298;-36.624;-64.282;2022-10-15T08:07:35;3.47;;;3.17;;
59972;SDS011;55298;-36.624;-64.282;2022-10-15T08:10:02;3.83;;;3.00;;
59972;SDS011;55298;-36.624;-64.282;2022-10-15T08:12:31;8.73;;;2.65;;
59972;SDS011;55298;-36.624;-64.282;2022-10-15T08:15:00;3.20;;;2.90;;
59972;SDS011;55298;-36.624;-64.282;2022-10-15T08:17:27;3.47;;;3.17;;
59972;SDS011;55298;-36.624;-64.282;2022-10-15T08:19:54;4.93;;;3.38;;
59972;SDS011;55298;-36.624;-64.282;2022-10-15T08:22:25;3.40;;;3.20;;
59972;SDS011;55298;-36.624;-64.282;2022-10-15T08:24:52;4.50;;;2.78;;
59972;SDS011;55298;-36.624;-64.282;2022-10-15T08:27:20;5.43;;;3.00;;
59972;SDS011;55298;-36.624;-64.282;2022-10-15T08:29:47;3.22;;;2.92;;
59972;SDS011;55298;-36.624;-64.282;2022-10-15T08:32:16;3.50;;;3.20;;
59972;SDS011;55298;-36.624;-64.282;2022-10-15T08:34:43;3.45;;;2.88;;
59972;SDS011;55298;-36.624;-64.282;2022-10-15T08:37:10;4.25;;;2.95;;
59972;SDS011;55298;-36.624;-64.282;2022-10-15T08:39:38;4.40;;;3.25;;
59972;SDS011;55298;-36.624;-64.282;2022-10-15T08:42:11;7.63;;;3.28;;
59972;SDS011;55298;-36.624;-64.282;2022-10-15T08:44:46;4.95;;;3.50;;
59972;SDS011;55298;-36.624;-64.282;2022-10-15T08:47:25;4.93;;;3.10;;
59972;SDS011;55298;-36.624;-64.282;2022-10-15T08:50:09;4.72;;;3.60;;
59972;SDS011;55298;-36.624;-64.282;2022-10-15T08:52:46;3.70;;;3.40;;
59972;SDS011;55298;-36.624;-64.282;2022-10-15T08:55:16;3.75;;;3.38;;
59972;SDS011;55298;-36.624;-64.282;2022-10-15T08:57:48;4.55;;;3.45;;
59972;SDS011;55298;-36.624;-64.282;2022-10-15T09:00:25;3.60;;;3.30;;
59972;SDS011;55298;-36.624;-64.282;2022-10-15T09:03:10;3.70;;;3.25;;
59972;SDS011;55298;-36.624;-64.282;2022-10-15T09:06:05;4.68;;;3.45;;
59972;SDS011;55298;-36.624;-64.282;2022-10-15T09:08:45;6.93;;;3.50;;
59972;SDS011;55298;-36.624;-64.282;2022-10-15T09:11:22;7.20;;;3.53;;
59972;SDS011;55298;-36.624;-64.282;2022-10-15T09:14:02;5.72;;;3.65;;
59972;SDS011;55298;-36.624;-64.282;2022-10-15T09:19:05;4.00;;;3.13;;
59972;SDS011;55298;-36.624;-64.282;2022-10-15T09:21:42;7.53;;;3.17;;
59972;SDS011;55298;-36.624;-64.282;2022-10-15T09:24:16;3.58;;;3.25;;
59972;SDS011;55298;-36.624;-64.282;2022-10-15T09:26:50;3.70;;;3.17;;
59972;SDS011;55298;-36.624;-64.282;2022-10-15T09:32:44;8.82;;;4.05;;
59972;SDS011;55298;-36.624;-64.282;2022-10-15T09:37:58;5.55;;;3.30;;
59972;SDS011;55298;-36.624;-64.282;2022-10-15T09:40:40;5.22;;;3.15;;
59972;SDS011;55298;-36.624;-64.282;2022-10-15T09:43:25;6.20;;;3.78;;
59972;SDS011;55298;-36.624;-64.282;2022-10-15T09:46:02;4.38;;;3.50;;
59972;SDS011;55298;-36.624;-64.282;2022-10-15T09:48:30;4.53;;;3.33;;
59972;SDS011;55298;-36.624;-64.282;2022-10-15T09:56:42;3.47;;;3.17;;
59972;SDS011;55298;-36.624;-64.282;2022-10-15T09:59:17;5.72;;;3.17;;
59972;SDS011;55298;-36.624;-64.282;2022-10-15T10:04:28;4.82;;;3.67;;
59972;SDS011;55298;-36.624;-64.282;2022-10-15T10:07:00;4.50;;;3.40;;
59972;SDS011;55298;-36.624;-64.282;2022-10-15T10:09:33;3.75;;;3.30;;
59972;SDS011;55298;-36.624;-64.282;2022-10-15T10:12:06;5.47;;;3.22;;
59972;SDS011;55298;-36.624;-64.282;2022-10-15T10:14:46;3.88;;;3.40;;
59972;SDS011;55298;-36.624;-64.282;2022-10-15T10:17:21;3.90;;;3.42;;
59972;SDS011;55298;-36.624;-64.282;2022-10-15T10:22:45;7.50;;;3.92;;
59972;SDS011;55298;-36.624;-64.282;2022-10-15T10:27:58;3.35;;;3.10;;
59972;SDS011;55298;-36.624;-64.282;2022-10-15T10:30:51;6.60;;;3.50;;
59972;SDS011;55298;-36.624;-64.282;2022-10-15T10:36:20;4.72;;;3.63;;
59972;SDS011;55298;-36.624;-64.282;2022-10-15T10:38:55;4.75;;;3.78;;
59972;SDS011;55298;-36.624;-64.282;2022-10-15T10:44:24;6.07;;;3.28;;
59972;SDS011;55298;-36.624;-64.282;2022-10-15T10:49:43;6.60;;;3.50;;
59972;SDS011;55298;-36.624;-64.282;2022-10-15T10:52:19;5.65;;;3.65;;
59972;SDS011;55298;-36.624;-64.282;2022-10-15T10:54:54;6.00;;;3.45;;
59972;SDS011;55298;-36.624;-64.282;2022-10-15T11:03:20;5.93;;;3.55;;
59972;SDS011;55298;-36.624;-64.282;2022-10-15T11:06:06;6.90;;;3.50;;
59972;SDS011;55298;-36.624;-64.282;2022-10-15T11:08:49;10.48;;;4.03;;
59972;SDS011;55298;-36.624;-64.282;2022-10-15T11:11:34;5.68;;;4.22;;
59972;SDS011;55298;-36.624;-64.282;2022-10-15T11:14:20;6.43;;;3.53;;
59972;SDS011;55298;-36.624;-64.282;2022-10-15T11:17:16;9.00;;;4.05;;
59972;SDS011;55298;-36.624;-64.282;2022-10-15T11:19:57;4.43;;;3.65;;
59972;SDS011;55298;-36.624;-64.282;2022-10-15T11:40:19;8.77;;;4.35;;
59972;SDS011;55298;-36.624;-64.282;2022-10-15T11:43:10;8.32;;;4.20;;
59972;SDS011;55298;-36.624;-64.282;2022-10-15T11:45:54;7.72;;;4.00;;
59972;SDS011;55298;-36.624;-64.282;2022-10-15T11:51:33;9.73;;;4.57;;
59972;SDS011;55298;-36.624;-64.282;2022-10-15T11:54:20;7.40;;;4.35;;
59972;SDS011;55298;-36.624;-64.282;2022-10-15T11:57:02;8.23;;;4.70;;
59972;SDS011;55298;-36.624;-64.282;2022-10-15T11:59:37;9.50;;;3.55;;
59972;SDS011;55298;-36.624;-64.282;2022-10-15T12:02:21;14.75;;;3.97;;
59972;SDS011;55298;-36.624;-64.282;2022-10-15T12:04:52;10.95;;;4.65;;
59972;SDS011;55298;-36.624;-64.282;2022-10-15T12:07:29;6.53;;;3.80;;
59972;SDS011;55298;-36.624;-64.282;2022-10-15T12:13:20;5.10;;;4.18;;
59972;SDS011;55298;-36.624;-64.282;2022-10-15T12:16:08;9.68;;;4.72;;
59972;SDS011;55298;-36.624;-64.282;2022-10-15T12:19:01;8.50;;;4.13;;
59972;SDS011;55298;-36.624;-64.282;2022-10-15T12:24:50;6.43;;;3.40;;
59972;SDS011;55298;-36.624;-64.282;2022-10-15T12:27:22;7.47;;;3.40;;
59972;SDS011;55298;-36.624;-64.282;2022-10-15T12:32:46;6.40;;;3.47;;
59972;SDS011;55298;-36.624;-64.282;2022-10-15T12:35:20;8.48;;;3.58;;
59972;SDS011;55298;-36.624;-64.282;2022-10-15T12:37:52;8.40;;;2.97;;
59972;SDS011;55298;-36.624;-64.282;2022-10-15T12:40:27;3.80;;;2.80;;
59972;SDS011;55298;-36.624;-64.282;2022-10-15T12:42:59;4.60;;;3.33;;
59972;SDS011;55298;-36.624;-64.282;2022-10-15T12:45:34;6.68;;;2.90;;
59972;SDS011;55298;-36.624;-64.282;2022-10-15T12:48:18;7.32;;;3.13;;
59972;SDS011;55298;-36.624;-64.282;2022-10-15T12:50:47;7.38;;;3.15;;
59972;SDS011;55298;-36.624;-64.282;2022-10-15T12:53:40;6.13;;;3.08;;
59972;SDS011;55298;-36.624;-64.282;2022-10-15T12:56:18;6.90;;;3.20;;
59972;SDS011;55298;-36.624;-64.282;2022-10-15T12:58:49;5.07;;;3.38;;
59972;SDS011;55298;-36.624;-64.282;2022-10-15T13:04:21;5.47;;;3.53;;
59972;SDS011;55298;-36.624;-64.282;2022-10-15T13:06:48;6.38;;;3.67;;
59972;SDS011;55298;-36.624;-64.282;2022-10-15T13:09:23;7.43;;;4.97;;
59972;SDS011;55298;-36.624;-64.282;2022-10-15T13:11:56;9.93;;;4.82;;
59972;SDS011;55298;-36.624;-64.282;2022-10-15T13:14:27;7.43;;;4.72;;
59972;SDS011;55298;-36.624;-64.282;2022-10-15T13:17:01;11.52;;;5.50;;
59972;SDS011;55298;-36.624;-64.282;2022-10-15T13:19:34;7.65;;;5.13;;
59972;SDS011;55298;-36.624;-64.282;2022-10-15T13:22:05;8.45;;;5.43;;
59972;SDS011;55298;-36.624;-64.282;2022-10-15T13:24:44;9.45;;;5.10;;
59972;SDS011;55298;-36.624;-64.282;2022-10-15T13:27:21;7.47;;;5.18;;
59972;SDS011;55298;-36.624;-64.282;2022-10-15T13:29:58;7.78;;;5.85;;
59972;SDS011;55298;-36.624;-64.282;2022-10-15T13:32:46;9.27;;;6.22;;
59972;SDS011;55298;-36.624;-64.282;2022-10-15T13:35:18;13.60;;;5.65;;
59972;SDS011;55298;-36.624;-64.282;2022-10-15T13:37:50;7.85;;;5.88;;
59972;SDS011;55298;-36.624;-64.282;2022-10-15T13:40:22;12.98;;;5.65;;
59972;SDS011;55298;-36.624;-64.282;2022-10-15T13:45:28;11.45;;;6.40;;
59972;SDS011;55298;-36.624;-64.282;2022-10-15T13:47:57;25.15;;;7.57;;
59972;SDS011;55298;-36.624;-64.282;2022-10-15T13:50:29;11.55;;;6.28;;
59972;SDS011;55298;-36.624;-64.282;2022-10-15T13:53:17;12.05;;;6.18;;
59972;SDS011;55298;-36.624;-64.282;2022-10-15T13:55:50;13.88;;;6.60;;
59972;SDS011;55298;-36.624;-64.282;2022-10-15T14:01:09;12.32;;;7.72;;
59972;SDS011;55298;-36.624;-64.282;2022-10-15T14:03:48;11.73;;;7.63;;
59972;SDS011;55298;-36.624;-64.282;2022-10-15T14:06:20;9.95;;;6.57;;
59972;SDS011;55298;-36.624;-64.282;2022-10-15T14:08:51;16.15;;;7.68;;
59972;SDS011;55298;-36.624;-64.282;2022-10-15T14:11:22;12.80;;;7.53;;
59972;SDS011;55298;-36.624;-64.282;2022-10-15T14:13:52;13.93;;;7.20;;
59972;SDS011;55298;-36.624;-64.282;2022-10-15T14:16:30;11.95;;;6.65;;
59972;SDS011;55298;-36.624;-64.282;2022-10-15T14:19:08;14.13;;;7.20;;
59972;SDS011;55298;-36.624;-64.282;2022-10-15T14:21:43;10.55;;;7.50;;
59972;SDS011;55298;-36.624;-64.282;2022-10-15T14:24:15;9.13;;;6.95;;
59972;SDS011;55298;-36.624;-64.282;2022-10-15T14:26:48;8.52;;;6.35;;
59972;SDS011;55298;-36.624;-64.282;2022-10-15T14:32:01;7.70;;;6.97;;
59972;SDS011;55298;-36.624;-64.282;2022-10-15T14:34:43;10.00;;;6.80;;
59972;SDS011;55298;-36.624;-64.282;2022-10-15T14:42:44;12.52;;;6.65;;
59972;SDS011;55298;-36.624;-64.282;2022-10-15T14:45:22;13.40;;;7.28;;
59972;SDS011;55298;-36.624;-64.282;2022-10-15T14:47:54;9.23;;;6.68;;
59972;SDS011;55298;-36.624;-64.282;2022-10-15T14:50:32;10.68;;;6.97;;
59972;SDS011;55298;-36.624;-64.282;2022-10-15T14:53:05;16.08;;;7.40;;
59972;SDS011;55298;-36.624;-64.282;2022-10-15T14:55:36;11.45;;;7.60;;
59972;SDS011;55298;-36.624;-64.282;2022-10-15T14:58:09;9.88;;;6.97;;
59972;SDS011;55298;-36.624;-64.282;2022-10-15T15:00:43;11.07;;;7.00;;
59972;SDS011;55298;-36.624;-64.282;2022-10-15T15:03:16;11.55;;;6.95;;
59972;SDS011;55298;-36.624;-64.282;2022-10-15T15:05:50;14.32;;;8.10;;
59972;SDS011;55298;-36.624;-64.282;2022-10-15T15:08:19;11.77;;;7.18;;
59972;SDS011;55298;-36.624;-64.282;2022-10-15T15:10:47;11.73;;;6.75;;
59972;SDS011;55298;-36.624;-64.282;2022-10-15T15:13:22;10.45;;;6.30;;
59972;SDS011;55298;-36.624;-64.282;2022-10-15T15:15:51;16.30;;;5.97;;
59972;SDS011;55298;-36.624;-64.282;2022-10-15T15:18:20;10.65;;;6.43;;
59972;SDS011;55298;-36.624;-64.282;2022-10-15T15:20:49;9.90;;;6.00;;
59972;SDS011;55298;-36.624;-64.282;2022-10-15T15:25:55;8.52;;;6.40;;
59972;SDS011;55298;-36.624;-64.282;2022-10-15T15:28:25;12.23;;;6.57;;
59972;SDS011;55298;-36.624;-64.282;2022-10-15T15:30:56;9.85;;;5.72;;
59972;SDS011;55298;-36.624;-64.282;2022-10-15T15:33:26;11.02;;;6.38;;
59972;SDS011;55298;-36.624;-64.282;2022-10-15T15:35:58;8.52;;;6.07;;
59972;SDS011;55298;-36.624;-64.282;2022-10-15T15:41:02;10.27;;;6.20;;
59972;SDS011;55298;-36.624;-64.282;2022-10-15T15:43:36;13.65;;;7.00;;
59972;SDS011;55298;-36.624;-64.282;2022-10-15T15:46:04;9.45;;;6.13;;
59972;SDS011;55298;-36.624;-64.282;2022-10-15T15:48:32;10.90;;;6.85;;
59972;SDS011;55298;-36.624;-64.282;2022-10-15T15:51:01;8.70;;;6.18;;
59972;SDS011;55298;-36.624;-64.282;2022-10-15T15:53:34;9.35;;;6.00;;
59972;SDS011;55298;-36.624;-64.282;2022-10-15T15:56:01;16.17;;;6.20;;
59972;SDS011;55298;-36.624;-64.282;2022-10-15T15:58:28;9.43;;;5.95;;
59972;SDS011;55298;-36.624;-64.282;2022-10-15T16:00:56;9.70;;;5.85;;
59972;SDS011;55298;-36.624;-64.282;2022-10-15T16:03:26;9.82;;;5.93;;
59972;SDS011;55298;-36.624;-64.282;2022-10-15T16:05:55;8.95;;;4.50;;
59972;SDS011;55298;-36.624;-64.282;2022-10-15T16:08:22;12.70;;;6.22;;
59972;SDS011;55298;-36.624;-64.282;2022-10-15T16:10:50;7.53;;;4.70;;